• Join FlightAware (Why Join?)
  • Login
  • US Flag 
01:46PM EDT


 

Airport Tracker/Info


-or-


 

Live Flight TrackerFlight Track Log ✈ PDT4226 ✈ 27-Jan-2014 ✈ KPHL - KBGM

Flight Track Log - Related Links

Times and Time Zones

All times are in EST time to prevent confusion due to time zone crossing. See the PDT4226 flight status page for this flight to view local times or setup timezone preferences in your user account.

Time Position Orientation Groundspeed Altitude Reporting Facility
EST Latitude Longitude Course Direction KTS MPH feet Rate Location/Type
11:50AM 39.9000 -75.2333 349° North 123 142 700  Level Philadelphia TRACON
11:51AM 39.9167 -75.2500 323° Northwest 112 129 1,400 1,200 Climbing Philadelphia TRACON
11:52AM 39.9500 -75.2500 360° North 127 146 2,500 900 Climbing Philadelphia TRACON
11:53AM 39.9833 -75.2667 339° North 167 192 3,200 720 Climbing Philadelphia TRACON
11:54AM 40.0333 -75.2667 360° North 179 206 4,000 420 Climbing Philadelphia TRACON
11:55AM 40.0833 -75.2667 360° North 226 260 4,000  Level Philadelphia TRACON
11:56AM 40.2098 -75.3200 349° North  Level FlightAware Approximate
11:57AM 40.1780 -75.2974 349° North  Level Estimated
12:04PM 40.5798 -75.4290 349° North  Level Estimated
12:05PM 40.6385 -75.4380 353° North  Level FlightAware Approximate
12:06PM 40.6973 -75.4470 353° North  Level FlightAware Approximate
12:07PM 40.7545 -75.4667 North  Level Estimated
12:08PM 40.8133 -75.4580 North  Level FlightAware Approximate
12:09PM 40.8703 -75.4788 North  Level Estimated
12:10PM 40.9283 -75.4640 11° North  Level FlightAware Approximate
12:11PM 40.9850 -75.4864 North  Level Estimated
12:12PM 41.0417 -75.5088 357° North  Level Estimated
12:13PM 41.1002 -75.4970 North  Level FlightAware Approximate
12:14PM 41.1586 -75.4852 North  Level FlightAware Approximate
12:15PM 41.2171 -75.4734 North  Level FlightAware Approximate
12:16PM 41.2724 -75.5012 North  Level Estimated
12:17PM 41.3310 -75.4908 North  Level FlightAware Approximate
12:18PM 41.3897 -75.4804 North  Level FlightAware Approximate
12:19PM 41.4436 -75.5128 323° Northwest  Level Estimated
12:20PM 41.4955 -75.5506 331° Northwest  Level FlightAware Approximate
12:21PM 41.5474 -75.5884 331° Northwest  Level FlightAware Approximate
12:22PM 41.5993 -75.6263 331° Northwest  Level FlightAware Approximate
12:23PM 41.6512 -75.6643 331° Northwest  Level FlightAware Approximate
12:24PM 41.7058 -75.6949 326° Northwest  Level Estimated
12:25PM 41.7537 -75.7414 324° Northwest  Level FlightAware Approximate
12:26PM 41.8015 -75.7880 324° Northwest  Level FlightAware Approximate
12:27PM 41.8494 -75.8346 324° Northwest  Level FlightAware Approximate
12:28PM 41.8972 -75.8813 324° Northwest  Level FlightAware Approximate
12:29PM 41.9548 -75.8995 323° Northwest  Level Estimated
12:30PM 42.0124 -75.9176 323° Northwest  Level Estimated
12:31PM 42.0467 -75.9824 306° West  Level FlightAware Approximate
12:32PM 42.1059 -75.9814 323° Northwest  Level Estimated
12:33PM 42.1650 -75.9804 90° East  Level Estimated
12:34PM 42.2084 -75.9796 62° Northeast  Level Estimated
12:35PM 42.2084 -75.9796 90° East  Level Estimated
12:36PM 42.2084 -75.9796 90° East  Level Estimated
12:37PM 42.2084 -75.9796 90° East  Level Estimated
12:38PM 42.2084 -75.9796 90° East  Level Estimated
12:39PM 42.2084 -75.9796 90° East  Level Estimated
12:40PM 42.2084 -75.9796 90° East  Level Estimated
12:41PM 42.2084 -75.9796 90° East  Level Estimated
12:42PM 42.2084 -75.9796 90° East  Level Estimated